sensor_id;sensor_type;location;lat;lon;timestamp;temperature;humidity
21801;DHT22;11062;51.164;16.924;2023-04-23T00:34:34;29.10;35.10
21801;DHT22;11062;51.164;16.924;2023-04-23T00:46:52;29.10;34.90
21801;DHT22;11062;51.164;16.924;2023-04-23T01:04:00;29.10;34.60
21801;DHT22;11062;51.164;16.924;2023-04-23T01:21:06;24.00;32.80
21801;DHT22;11062;51.164;16.924;2023-04-23T01:23:34;29.00;34.30
21801;DHT22;11062;51.164;16.924;2023-04-23T02:02:43;28.60;34.60
21801;DHT22;11062;51.164;16.924;2023-04-23T02:05:18;28.60;34.40
21801;DHT22;11062;51.164;16.924;2023-04-23T02:07:46;28.60;34.60
21801;DHT22;11062;51.164;16.924;2023-04-23T02:10:17;28.60;34.40
21801;DHT22;11062;51.164;16.924;2023-04-23T02:12:44;28.60;35.30
21801;DHT22;11062;51.164;16.924;2023-04-23T02:15:11;28.60;35.70
21801;DHT22;11062;51.164;16.924;2023-04-23T02:20:07;26.00;33.00
21801;DHT22;11062;51.164;16.924;2023-04-23T02:22:38;28.50;34.70
21801;DHT22;11062;51.164;16.924;2023-04-23T02:25:06;28.50;34.70
21801;DHT22;11062;51.164;16.924;2023-04-23T02:32:28;28.40;34.50
21801;DHT22;11062;51.164;16.924;2023-04-23T02:39:53;28.40;34.70
21801;DHT22;11062;51.164;16.924;2023-04-23T02:44:48;28.30;34.80
21801;DHT22;11062;51.164;16.924;2023-04-23T02:52:09;28.20;35.00
21801;DHT22;11062;51.164;16.924;2023-04-23T02:57:11;28.20;34.90
21801;DHT22;11062;51.164;16.924;2023-04-23T02:59:47;28.20;34.80
21801;DHT22;11062;51.164;16.924;2023-04-23T03:14:26;28.00;34.80
21801;DHT22;11062;51.164;16.924;2023-04-23T03:24:12;28.00;34.90
21801;DHT22;11062;51.164;16.924;2023-04-23T03:29:06;28.00;35.80
21801;DHT22;11062;51.164;16.924;2023-04-23T03:31:35;28.00;35.00
21801;DHT22;11062;51.164;16.924;2023-04-23T03:34:01;27.70;34.90
21801;DHT22;11062;51.164;16.924;2023-04-23T03:53:36;27.70;35.20
21801;DHT22;11062;51.164;16.924;2023-04-23T04:08:18;27.70;35.30
21801;DHT22;11062;51.164;16.924;2023-04-23T04:10:46;27.70;35.40
21801;DHT22;11062;51.164;16.924;2023-04-23T04:42:36;28.00;38.80
21801;DHT22;11062;51.164;16.924;2023-04-23T04:47:32;28.20;36.50
21801;DHT22;11062;51.164;16.924;2023-04-23T04:52:27;28.30;36.90
21801;DHT22;11062;51.164;16.924;2023-04-23T05:02:13;26.50;36.50
21801;DHT22;11062;51.164;16.924;2023-04-23T05:43:48;30.30;36.40
21801;DHT22;11062;51.164;16.924;2023-04-23T05:46:18;30.60;36.40
21801;DHT22;11062;51.164;16.924;2023-04-23T06:01:01;30.80;34.60
21801;DHT22;11062;51.164;16.924;2023-04-23T06:32:53;31.60;34.00
21801;DHT22;11062;51.164;16.924;2023-04-23T06:45:07;32.30;33.40
21801;DHT22;11062;51.164;16.924;2023-04-23T06:52:29;32.20;33.60
21801;DHT22;11062;51.164;16.924;2023-04-23T07:07:12;32.60;33.00
21801;DHT22;11062;51.164;16.924;2023-04-23T07:21:57;32.70;33.10
21801;DHT22;11062;51.164;16.924;2023-04-23T07:53:46;31.10;35.10
21801;DHT22;11062;51.164;16.924;2023-04-23T08:25:43;33.50;35.50
21801;DHT22;11062;51.164;16.924;2023-04-23T08:28:09;33.70;34.20
21801;DHT22;11062;51.164;16.924;2023-04-23T08:33:04;33.60;33.80
21801;DHT22;11062;51.164;16.924;2023-04-23T08:35:33;33.90;34.90
21801;DHT22;11062;51.164;16.924;2023-04-23T08:37:59;32.40;39.70
21801;DHT22;11062;51.164;16.924;2023-04-23T08:40:29;35.50;41.00
21801;DHT22;11062;51.164;16.924;2023-04-23T08:43:06;35.50;37.40
21801;DHT22;11062;51.164;16.924;2023-04-23T08:45:35;36.10;36.90
21801;DHT22;11062;51.164;16.924;2023-04-23T08:48:06;34.30;34.70
21801;DHT22;11062;51.164;16.924;2023-04-23T08:50:41;34.80;32.30
21801;DHT22;11062;51.164;16.924;2023-04-23T08:53:10;32.90;31.60
21801;DHT22;11062;51.164;16.924;2023-04-23T08:55:48;36.20;33.90
21801;DHT22;11062;51.164;16.924;2023-04-23T08:58:15;35.30;35.90
21801;DHT22;11062;51.164;16.924;2023-04-23T09:00:42;36.10;38.70
21801;DHT22;11062;51.164;16.924;2023-04-23T09:03:18;35.00;34.00
21801;DHT22;11062;51.164;16.924;2023-04-23T09:05:47;36.30;34.30
21801;DHT22;11062;51.164;16.924;2023-04-23T09:08:23;36.40;34.80
21801;DHT22;11062;51.164;16.924;2023-04-23T09:10:50;36.50;37.10
21801;DHT22;11062;51.164;16.924;2023-04-23T11:42:12;39.20;31.60
21801;DHT22;11062;51.164;16.924;2023-04-23T11:48:17;37.30;30.80
21801;DHT22;11062;51.164;16.924;2023-04-23T11:51:41;37.20;30.50
21801;DHT22;11062;51.164;16.924;2023-04-23T12:34:07;34.70;33.60
21801;DHT22;11062;51.164;16.924;2023-04-23T12:46:58;35.00;33.80
21801;DHT22;11062;51.164;16.924;2023-04-23T13:18:59;34.20;37.40
21801;DHT22;11062;51.164;16.924;2023-04-23T13:23:58;34.50;36.70
21801;DHT22;11062;51.164;16.924;2023-04-23T13:50:59;34.30;36.70
21801;DHT22;11062;51.164;16.924;2023-04-23T14:28:43;33.40;36.40
21801;DHT22;11062;51.164;16.924;2023-04-23T15:12:53;33.20;37.80
21801;DHT22;11062;51.164;16.924;2023-04-23T15:15:47;33.10;36.90
21801;DHT22;11062;51.164;16.924;2023-04-23T16:00:09;33.30;42.90
21801;DHT22;11062;51.164;16.924;2023-04-23T16:09:59;32.00;41.80
21801;DHT22;11062;51.164;16.924;2023-04-23T16:59:11;31.50;44.50
21801;DHT22;11062;51.164;16.924;2023-04-23T17:01:41;32.10;46.60
21801;DHT22;11062;51.164;16.924;2023-04-23T17:04:07;30.60;46.80
21801;DHT22;11062;51.164;16.924;2023-04-23T17:06:33;31.60;44.30
21801;DHT22;11062;51.164;16.924;2023-04-23T17:09:00;31.80;44.10
21801;DHT22;11062;51.164;16.924;2023-04-23T17:11:32;32.00;43.40
21801;DHT22;11062;51.164;16.924;2023-04-23T17:14:01;32.30;42.90
21801;DHT22;11062;51.164;16.924;2023-04-23T17:16:32;32.70;43.10
21801;DHT22;11062;51.164;16.924;2023-04-23T17:18:58;33.00;42.50
21801;DHT22;11062;51.164;16.924;2023-04-23T17:21:24;33.10;42.30
21801;DHT22;11062;51.164;16.924;2023-04-23T17:23:53;33.10;41.70
21801;DHT22;11062;51.164;16.924;2023-04-23T17:26:25;32.80;41.70
21801;DHT22;11062;51.164;16.924;2023-04-23T17:28:56;32.60;42.50
21801;DHT22;11062;51.164;16.924;2023-04-23T17:31:25;32.60;42.50
21801;DHT22;11062;51.164;16.924;2023-04-23T17:33:51;33.00;42.60
21801;DHT22;11062;51.164;16.924;2023-04-23T17:36:18;33.30;42.10
21801;DHT22;11062;51.164;16.924;2023-04-23T17:38:50;33.40;42.10
21801;DHT22;11062;51.164;16.924;2023-04-23T17:41:25;33.70;42.10
21801;DHT22;11062;51.164;16.924;2023-04-23T17:43:51;34.00;42.10
21801;DHT22;11062;51.164;16.924;2023-04-23T17:46:20;33.70;42.00
21801;DHT22;11062;51.164;16.924;2023-04-23T17:48:46;33.90;42.20
21801;DHT22;11062;51.164;16.924;2023-04-23T17:51:15;34.10;42.20
21801;DHT22;11062;51.164;16.924;2023-04-23T17:53:41;34.30;42.30
21801;DHT22;11062;51.164;16.924;2023-04-23T17:56:10;34.30;41.80
21801;DHT22;11062;51.164;16.924;2023-04-23T17:58:46;33.60;41.60
21801;DHT22;11062;51.164;16.924;2023-04-23T18:01:12;33.60;42.50
21801;DHT22;11062;51.164;16.924;2023-04-23T18:03:40;33.80;42.60
21801;DHT22;11062;51.164;16.924;2023-04-23T18:06:08;33.90;42.30
21801;DHT22;11062;51.164;16.924;2023-04-23T18:08:34;34.10;42.10
21801;DHT22;11062;51.164;16.924;2023-04-23T18:11:01;34.20;42.00
21801;DHT22;11062;51.164;16.924;2023-04-23T18:13:31;34.50;42.10
21801;DHT22;11062;51.164;16.924;2023-04-23T18:15:57;34.60;41.80
21801;DHT22;11062;51.164;16.924;2023-04-23T18:18:23;34.60;41.70
21801;DHT22;11062;51.164;16.924;2023-04-23T18:20:52;34.50;41.60
21801;DHT22;11062;51.164;16.924;2023-04-23T18:23:18;34.40;41.80
21801;DHT22;11062;51.164;16.924;2023-04-23T18:25:47;34.30;41.70
21801;DHT22;11062;51.164;16.924;2023-04-23T18:28:18;34.50;41.80
21801;DHT22;11062;51.164;16.924;2023-04-23T18:30:47;34.60;41.80
21801;DHT22;11062;51.164;16.924;2023-04-23T18:33:28;34.60;41.40
21801;DHT22;11062;51.164;16.924;2023-04-23T18:36:01;34.60;41.30
21801;DHT22;11062;51.164;16.924;2023-04-23T18:38:42;34.70;41.70
21801;DHT22;11062;51.164;16.924;2023-04-23T18:41:11;34.90;41.20
21801;DHT22;11062;51.164;16.924;2023-04-23T18:43:40;34.90;41.20
21801;DHT22;11062;51.164;16.924;2023-04-23T18:46:06;34.90;40.70
21801;DHT22;11062;51.164;16.924;2023-04-23T18:51:04;35.00;40.80
21801;DHT22;11062;51.164;16.924;2023-04-23T18:53:31;35.00;40.50
21801;DHT22;11062;51.164;16.924;2023-04-23T18:56:03;35.00;40.30
21801;DHT22;11062;51.164;16.924;2023-04-23T18:58:32;35.00;40.60
21801;DHT22;11062;51.164;16.924;2023-04-23T19:00:58;35.00;40.30
21801;DHT22;11062;51.164;16.924;2023-04-23T20:04:58;32.10;44.70
21801;DHT22;11062;51.164;16.924;2023-04-23T20:07:27;33.00;47.30
21801;DHT22;11062;51.164;16.924;2023-04-23T20:09:53;32.30;43.90
21801;DHT22;11062;51.164;16.924;2023-04-23T20:12:19;32.60;43.20
21801;DHT22;11062;51.164;16.924;2023-04-23T20:14:45;33.10;42.70
21801;DHT22;11062;51.164;16.924;2023-04-23T20:17:12;33.50;42.10
21801;DHT22;11062;51.164;16.924;2023-04-23T20:19:38;33.80;41.40
21801;DHT22;11062;51.164;16.924;2023-04-23T20:22:04;34.10;41.10
21801;DHT22;11062;51.164;16.924;2023-04-23T20:24:31;34.30;40.70
21801;DHT22;11062;51.164;16.924;2023-04-23T20:27:03;34.50;40.50
21801;DHT22;11062;51.164;16.924;2023-04-23T20:29:34;34.60;40.50
21801;DHT22;11062;51.164;16.924;2023-04-23T20:32:03;34.70;40.20
21801;DHT22;11062;51.164;16.924;2023-04-23T20:34:29;34.80;41.10
21801;DHT22;11062;51.164;16.924;2023-04-23T20:36:56;34.90;40.30
21801;DHT22;11062;51.164;16.924;2023-04-23T20:39:23;34.90;39.90
21801;DHT22;11062;51.164;16.924;2023-04-23T20:41:52;34.90;39.50
21801;DHT22;11062;51.164;16.924;2023-04-23T20:44:19;34.90;39.60
21801;DHT22;11062;51.164;16.924;2023-04-23T20:46:52;34.90;39.50
21801;DHT22;11062;51.164;16.924;2023-04-23T20:49:18;35.00;39.90
21801;DHT22;11062;51.164;16.924;2023-04-23T20:51:44;35.00;39.60
21801;DHT22;11062;51.164;16.924;2023-04-23T20:54:11;35.00;39.60
21801;DHT22;11062;51.164;16.924;2023-04-23T20:56:40;35.00;39.60
21801;DHT22;11062;51.164;16.924;2023-04-23T20:59:05;35.00;39.40
21801;DHT22;11062;51.164;16.924;2023-04-23T21:01:36;34.90;39.60
21801;DHT22;11062;51.164;16.924;2023-04-23T21:04:05;34.90;39.40
21801;DHT22;11062;51.164;16.924;2023-04-23T21:06:34;34.90;39.80
21801;DHT22;11062;51.164;16.924;2023-04-23T21:09:02;34.90;39.70
21801;DHT22;11062;51.164;16.924;2023-04-23T21:11:29;34.90;39.60
21801;DHT22;11062;51.164;16.924;2023-04-23T21:13:56;34.90;39.50
21801;DHT22;11062;51.164;16.924;2023-04-23T21:16:22;34.90;39.30
21801;DHT22;11062;51.164;16.924;2023-04-23T21:18:48;35.00;39.50
21801;DHT22;11062;51.164;16.924;2023-04-23T21:21:14;34.90;39.50
21801;DHT22;11062;51.164;16.924;2023-04-23T21:23:43;34.90;39.60
21801;DHT22;11062;51.164;16.924;2023-04-23T21:26:11;34.80;39.40
21801;DHT22;11062;51.164;16.924;2023-04-23T21:28:43;34.90;39.20
21801;DHT22;11062;51.164;16.924;2023-04-23T21:31:12;34.90;39.30
21801;DHT22;11062;51.164;16.924;2023-04-23T21:33:45;34.90;40.30
21801;DHT22;11062;51.164;16.924;2023-04-23T21:36:14;34.90;39.40
21801;DHT22;11062;51.164;16.924;2023-04-23T21:38:40;34.90;39.30
21801;DHT22;11062;51.164;16.924;2023-04-23T21:41:06;34.90;39.30
21801;DHT22;11062;51.164;16.924;2023-04-23T21:43:32;34.80;39.30
21801;DHT22;11062;51.164;16.924;2023-04-23T21:46:00;34.80;39.00
21801;DHT22;11062;51.164;16.924;2023-04-23T21:48:29;34.80;39.00
21801;DHT22;11062;51.164;16.924;2023-04-23T21:50:58;34.80;39.00
21801;DHT22;11062;51.164;16.924;2023-04-23T21:53:25;34.70;39.00
21801;DHT22;11062;51.164;16.924;2023-04-23T21:55:55;34.70;39.00
21801;DHT22;11062;51.164;16.924;2023-04-23T21:58:21;34.70;38.80
21801;DHT22;11062;51.164;16.924;2023-04-23T22:00:46;34.70;38.80
21801;DHT22;11062;51.164;16.924;2023-04-23T22:03:13;34.60;39.00
21801;DHT22;11062;51.164;16.924;2023-04-23T22:05:43;34.70;38.80
21801;DHT22;11062;51.164;16.924;2023-04-23T22:08:09;34.60;39.00
21801;DHT22;11062;51.164;16.924;2023-04-23T22:10:35;34.60;38.90
21801;DHT22;11062;51.164;16.924;2023-04-23T22:13:07;34.60;38.80
21801;DHT22;11062;51.164;16.924;2023-04-23T22:15:38;34.50;39.00
21801;DHT22;11062;51.164;16.924;2023-04-23T22:18:04;34.50;38.80
21801;DHT22;11062;51.164;16.924;2023-04-23T22:20:31;34.50;38.90
21801;DHT22;11062;51.164;16.924;2023-04-23T22:22:59;34.50;39.10
21801;DHT22;11062;51.164;16.924;2023-04-23T22:25:25;34.50;39.30
21801;DHT22;11062;51.164;16.924;2023-04-23T22:27:54;34.40;39.30
21801;DHT22;11062;51.164;16.924;2023-04-23T22:30:26;34.50;39.60
21801;DHT22;11062;51.164;16.924;2023-04-23T22:32:54;34.40;39.60
21801;DHT22;11062;51.164;16.924;2023-04-23T22:35:20;34.40;39.80
21801;DHT22;11062;51.164;16.924;2023-04-23T22:37:46;34.40;39.70
21801;DHT22;11062;51.164;16.924;2023-04-23T22:40:12;34.50;39.80
21801;DHT22;11062;51.164;16.924;2023-04-23T22:42:38;34.50;39.80
21801;DHT22;11062;51.164;16.924;2023-04-23T22:45:07;34.40;39.90
21801;DHT22;11062;51.164;16.924;2023-04-23T22:47:41;34.50;39.80
21801;DHT22;11062;51.164;16.924;2023-04-23T22:50:10;34.50;39.70
21801;DHT22;11062;51.164;16.924;2023-04-23T22:52:39;34.60;39.80
21801;DHT22;11062;51.164;16.924;2023-04-23T22:55:06;34.60;39.60
21801;DHT22;11062;51.164;16.924;2023-04-23T22:57:32;34.50;39.40
21801;DHT22;11062;51.164;16.924;2023-04-23T22:59:59;34.50;39.50
21801;DHT22;11062;51.164;16.924;2023-04-23T23:02:38;34.50;39.50
21801;DHT22;11062;51.164;16.924;2023-04-23T23:05:05;34.50;39.60
21801;DHT22;11062;51.164;16.924;2023-04-23T23:07:31;34.50;39.60
21801;DHT22;11062;51.164;16.924;2023-04-23T23:10:00;34.60;39.60
21801;DHT22;11062;51.164;16.924;2023-04-23T23:12:28;34.80;39.90
21801;DHT22;11062;51.164;16.924;2023-04-23T23:14:56;34.70;39.70
21801;DHT22;11062;51.164;16.924;2023-04-23T23:17:22;34.80;39.60
21801;DHT22;11062;51.164;16.924;2023-04-23T23:19:48;34.90;39.80
21801;DHT22;11062;51.164;16.924;2023-04-23T23:22:17;34.90;39.60
21801;DHT22;11062;51.164;16.924;2023-04-23T23:24:43;35.00;39.40
21801;DHT22;11062;51.164;16.924;2023-04-23T23:27:09;35.00;39.50
21801;DHT22;11062;51.164;16.924;2023-04-23T23:29:35;35.10;39.40
21801;DHT22;11062;51.164;16.924;2023-04-23T23:32:04;35.10;39.10
21801;DHT22;11062;51.164;16.924;2023-04-23T23:34:30;35.10;38.90
21801;DHT22;11062;51.164;16.924;2023-04-23T23:36:56;35.10;39.20
21801;DHT22;11062;51.164;16.924;2023-04-23T23:39:22;35.20;39.10
21801;DHT22;11062;51.164;16.924;2023-04-23T23:41:51;35.10;39.00
21801;DHT22;11062;51.164;16.924;2023-04-23T23:44:19;35.30;39.40
21801;DHT22;11062;51.164;16.924;2023-04-23T23:46:45;35.30;39.40
21801;DHT22;11062;51.164;16.924;2023-04-23T23:49:16;35.20;39.10
21801;DHT22;11062;51.164;16.924;2023-04-23T23:51:42;35.20;39.10
21801;DHT22;11062;51.164;16.924;2023-04-23T23:54:08;35.20;39.00
21801;DHT22;11062;51.164;16.924;2023-04-23T23:56:37;35.20;38.90
21801;DHT22;11062;51.164;16.924;2023-04-23T23:59:09;35.20;39.20
